sensor_id;sensor_type;location;lat;lon;timestamp;pressure;altitude;pressure_sealevel;temperature;humidity
35419;BME280;21525;41.240;16.500;2023-04-10T00:00:08;101647.63;;;17.54;75.46
35419;BME280;21525;41.240;16.500;2023-04-10T00:02:35;101650.56;;;17.42;74.75
35419;BME280;21525;41.240;16.500;2023-04-10T00:05:01;101655.78;;;17.43;76.21
35419;BME280;21525;41.240;16.500;2023-04-10T00:07:27;101657.50;;;17.44;75.94
35419;BME280;21525;41.240;16.500;2023-04-10T00:09:53;101662.22;;;17.66;74.18
35419;BME280;21525;41.240;16.500;2023-04-10T00:12:19;101683.03;;;17.41;75.04
35419;BME280;21525;41.240;16.500;2023-04-10T00:14:45;101694.69;;;17.31;74.55
35419;BME280;21525;41.240;16.500;2023-04-10T00:17:11;101700.13;;;17.23;74.88
35419;BME280;21525;41.240;16.500;2023-04-10T00:19:37;101694.06;;;17.21;75.90
35419;BME280;21525;41.240;16.500;2023-04-10T00:22:03;101679.34;;;17.48;74.87
35419;BME280;21525;41.240;16.500;2023-04-10T00:24:29;101673.81;;;17.90;72.61
35419;BME280;21525;41.240;16.500;2023-04-10T00:26:55;101662.22;;;17.66;73.49
35419;BME280;21525;41.240;16.500;2023-04-10T00:29:22;101664.00;;;17.64;74.18
35419;BME280;21525;41.240;16.500;2023-04-10T00:31:48;101655.03;;;17.04;76.50
35419;BME280;21525;41.240;16.500;2023-04-10T00:34:14;101650.06;;;17.60;74.27
35419;BME280;21525;41.240;16.500;2023-04-10T00:36:41;101649.84;;;17.69;74.88
35419;BME280;21525;41.240;16.500;2023-04-10T00:39:08;101643.22;;;18.17;71.87
35419;BME280;21525;41.240;16.500;2023-04-10T00:41:34;101638.72;;;17.58;73.42
35419;BME280;21525;41.240;16.500;2023-04-10T00:44:00;101628.50;;;18.09;70.40
35419;BME280;21525;41.240;16.500;2023-04-10T00:46:26;101624.59;;;17.93;70.03
35419;BME280;21525;41.240;16.500;2023-04-10T00:48:53;101622.53;;;17.73;70.18
35419;BME280;21525;41.240;16.500;2023-04-10T00:51:20;101612.34;;;17.29;71.67
35419;BME280;21525;41.240;16.500;2023-04-10T00:53:50;101608.47;;;17.74;70.42
35419;BME280;21525;41.240;16.500;2023-04-10T00:56:20;101599.00;;;17.36;69.77
35419;BME280;21525;41.240;16.500;2023-04-10T00:58:47;101597.41;;;17.93;68.78
35419;BME280;21525;41.240;16.500;2023-04-10T01:01:12;101597.47;;;17.59;69.78
35419;BME280;21525;41.240;16.500;2023-04-10T01:03:41;101603.09;;;17.14;71.21
35419;BME280;21525;41.240;16.500;2023-04-10T01:13:52;101592.41;;;17.53;69.61
35419;BME280;21525;41.240;16.500;2023-04-10T01:16:25;101588.47;;;17.04;74.68
35419;BME280;21525;41.240;16.500;2023-04-10T01:18:57;101584.78;;;17.43;71.66
35419;BME280;21525;41.240;16.500;2023-04-10T01:21:27;101584.88;;;17.71;69.83
35419;BME280;21525;41.240;16.500;2023-04-10T01:29:28;101589.03;;;17.80;67.60
35419;BME280;21525;41.240;16.500;2023-04-10T01:32:01;101580.66;;;17.33;69.53
35419;BME280;21525;41.240;16.500;2023-04-10T01:34:34;101587.34;;;16.80;72.77
35419;BME280;21525;41.240;16.500;2023-04-10T01:37:15;101586.25;;;16.89;73.70
35419;BME280;21525;41.240;16.500;2023-04-10T01:39:41;101582.38;;;17.02;73.69
35419;BME280;21525;41.240;16.500;2023-04-10T01:42:10;101569.47;;;16.93;73.04
35419;BME280;21525;41.240;16.500;2023-04-10T01:44:40;101572.38;;;17.49;70.43
35419;BME280;21525;41.240;16.500;2023-04-10T01:47:07;101569.16;;;16.71;72.90
35419;BME280;21525;41.240;16.500;2023-04-10T01:49:34;101570.69;;;17.46;71.07
35419;BME280;21525;41.240;16.500;2023-04-10T01:52:04;101562.34;;;17.30;71.42
35419;BME280;21525;41.240;16.500;2023-04-10T01:54:32;101549.75;;;17.41;69.43
35419;BME280;21525;41.240;16.500;2023-04-10T01:57:00;101552.88;;;16.20;74.64
35419;BME280;21525;41.240;16.500;2023-04-10T01:59:28;101547.81;;;16.85;71.45
35419;BME280;21525;41.240;16.500;2023-04-10T02:01:58;101550.19;;;16.58;70.94
35419;BME280;21525;41.240;16.500;2023-04-10T02:04:26;101543.78;;;16.34;73.25
35419;BME280;21525;41.240;16.500;2023-04-10T02:09:27;101543.38;;;16.87;71.97
35419;BME280;21525;41.240;16.500;2023-04-10T02:11:58;101545.75;;;17.28;69.63
35419;BME280;21525;41.240;16.500;2023-04-10T02:14:30;101541.13;;;17.05;69.37
35419;BME280;21525;41.240;16.500;2023-04-10T02:16:56;101534.44;;;16.92;69.56
35419;BME280;21525;41.240;16.500;2023-04-10T02:19:24;101539.75;;;16.91;69.76
35419;BME280;21525;41.240;16.500;2023-04-10T02:21:52;101540.34;;;16.68;71.71
35419;BME280;21525;41.240;16.500;2023-04-10T02:24:19;101541.88;;;16.41;73.55
35419;BME280;21525;41.240;16.500;2023-04-10T02:26:46;101533.22;;;17.05;70.47
35419;BME280;21525;41.240;16.500;2023-04-10T02:29:12;101527.50;;;16.90;68.80
35419;BME280;21525;41.240;16.500;2023-04-10T02:31:42;101525.19;;;16.79;70.69
35419;BME280;21525;41.240;16.500;2023-04-10T02:34:08;101529.06;;;16.64;70.28
35419;BME280;21525;41.240;16.500;2023-04-10T02:36:35;101509.25;;;17.18;68.77
35419;BME280;21525;41.240;16.500;2023-04-10T02:39:02;101508.72;;;17.05;68.22
35419;BME280;21525;41.240;16.500;2023-04-10T02:41:28;101504.06;;;16.84;69.23
35419;BME280;21525;41.240;16.500;2023-04-10T02:43:54;101506.16;;;16.69;70.33
35419;BME280;21525;41.240;16.500;2023-04-10T02:46:25;101491.41;;;16.64;69.61
35419;BME280;21525;41.240;16.500;2023-04-10T02:48:51;101494.78;;;16.69;69.23
35419;BME280;21525;41.240;16.500;2023-04-10T02:51:18;101497.22;;;16.76;70.75
35419;BME280;21525;41.240;16.500;2023-04-10T02:53:43;101487.06;;;16.95;69.04
35419;BME280;21525;41.240;16.500;2023-04-10T02:56:16;101492.50;;;16.55;70.48
35419;BME280;21525;41.240;16.500;2023-04-10T02:58:42;101489.56;;;16.32;71.84
35419;BME280;21525;41.240;16.500;2023-04-10T03:01:11;101488.63;;;16.34;71.77
35419;BME280;21525;41.240;16.500;2023-04-10T03:03:42;101477.16;;;16.03;73.51
35419;BME280;21525;41.240;16.500;2023-04-10T03:06:08;101481.63;;;16.35;71.45
35419;BME280;21525;41.240;16.500;2023-04-10T03:08:35;101475.03;;;16.54;70.76
35419;BME280;21525;41.240;16.500;2023-04-10T03:11:01;101470.63;;;16.21;73.41
35419;BME280;21525;41.240;16.500;2023-04-10T03:13:27;101467.44;;;16.06;74.87
35419;BME280;21525;41.240;16.500;2023-04-10T03:15:53;101459.72;;;16.36;73.58
35419;BME280;21525;41.240;16.500;2023-04-10T03:18:19;101460.28;;;16.49;72.40
35419;BME280;21525;41.240;16.500;2023-04-10T03:20:48;101463.16;;;16.38;73.48
35419;BME280;21525;41.240;16.500;2023-04-10T03:23:14;101458.53;;;16.13;73.19
35419;BME280;21525;41.240;16.500;2023-04-10T03:25:40;101456.47;;;16.93;70.17
35419;BME280;21525;41.240;16.500;2023-04-10T03:28:07;101453.16;;;16.88;70.15
35419;BME280;21525;41.240;16.500;2023-04-10T03:30:33;101460.88;;;16.58;71.34
35419;BME280;21525;41.240;16.500;2023-04-10T03:33:02;101455.66;;;16.91;69.63
35419;BME280;21525;41.240;16.500;2023-04-10T03:35:28;101453.75;;;16.63;70.08
35419;BME280;21525;41.240;16.500;2023-04-10T03:37:54;101453.59;;;17.02;68.82
35419;BME280;21525;41.240;16.500;2023-04-10T03:40:19;101456.59;;;16.22;72.35
35419;BME280;21525;41.240;16.500;2023-04-10T03:42:45;101454.09;;;16.85;69.70
35419;BME280;21525;41.240;16.500;2023-04-10T03:45:12;101461.03;;;16.54;70.54
35419;BME280;21525;41.240;16.500;2023-04-10T03:47:38;101467.53;;;16.39;70.19
35419;BME280;21525;41.240;16.500;2023-04-10T03:50:06;101460.53;;;16.73;68.53
35419;BME280;21525;41.240;16.500;2023-04-10T03:52:40;101451.59;;;16.81;68.31
35419;BME280;21525;41.240;16.500;2023-04-10T03:55:10;101447.78;;;16.91;66.85
35419;BME280;21525;41.240;16.500;2023-04-10T03:57:35;101462.81;;;15.81;73.35
35419;BME280;21525;41.240;16.500;2023-04-10T04:00:04;101461.38;;;16.40;71.93
35419;BME280;21525;41.240;16.500;2023-04-10T04:02:46;101467.00;;;16.25;70.96
35419;BME280;21525;41.240;16.500;2023-04-10T04:05:18;101468.06;;;16.18;70.75
35419;BME280;21525;41.240;16.500;2023-04-10T04:07:54;101463.44;;;15.92;72.21
35419;BME280;21525;41.240;16.500;2023-04-10T04:10:35;101459.78;;;15.97;69.87
35419;BME280;21525;41.240;16.500;2023-04-10T04:13:15;101451.25;;;16.25;70.20
35419;BME280;21525;41.240;16.500;2023-04-10T04:16:01;101466.56;;;15.69;72.59
35419;BME280;21525;41.240;16.500;2023-04-10T04:18:56;101472.97;;;15.94;71.46
35419;BME280;21525;41.240;16.500;2023-04-10T04:21:39;101486.63;;;15.71;72.51
35419;BME280;21525;41.240;16.500;2023-04-10T04:24:23;101485.97;;;16.36;68.12
35419;BME280;21525;41.240;16.500;2023-04-10T04:27:02;101484.22;;;15.61;72.95
35419;BME280;21525;41.240;16.500;2023-04-10T04:29:47;101485.56;;;15.80;71.70
35419;BME280;21525;41.240;16.500;2023-04-10T04:32:19;101485.53;;;16.19;68.79
35419;BME280;21525;41.240;16.500;2023-04-10T04:35:10;101480.81;;;15.96;68.68
35419;BME280;21525;41.240;16.500;2023-04-10T04:38:14;101478.81;;;16.42;66.77
35419;BME280;21525;41.240;16.500;2023-04-10T04:41:03;101485.75;;;16.45;67.54
35419;BME280;21525;41.240;16.500;2023-04-10T04:43:52;101484.72;;;16.86;66.10
35419;BME280;21525;41.240;16.500;2023-04-10T04:46:45;101492.03;;;16.02;68.57
35419;BME280;21525;41.240;16.500;2023-04-10T04:49:17;101496.41;;;16.39;67.15
35419;BME280;21525;41.240;16.500;2023-04-10T04:52:09;101505.25;;;16.70;66.11
35419;BME280;21525;41.240;16.500;2023-04-10T04:54:41;101505.69;;;16.88;65.40
35419;BME280;21525;41.240;16.500;2023-04-10T04:57:23;101514.00;;;16.71;65.87
35419;BME280;21525;41.240;16.500;2023-04-10T05:00:01;101510.88;;;16.55;66.23
35419;BME280;21525;41.240;16.500;2023-04-10T05:02:47;101502.72;;;16.67;64.68
35419;BME280;21525;41.240;16.500;2023-04-10T05:05:27;101511.69;;;16.57;64.88
35419;BME280;21525;41.240;16.500;2023-04-10T05:08:05;101521.84;;;15.98;67.28
35419;BME280;21525;41.240;16.500;2023-04-10T05:10:44;101522.03;;;16.28;66.00
35419;BME280;21525;41.240;16.500;2023-04-10T05:13:27;101520.00;;;16.76;64.62
35419;BME280;21525;41.240;16.500;2023-04-10T05:16:10;101523.97;;;16.91;63.35
35419;BME280;21525;41.240;16.500;2023-04-10T05:18:53;101519.84;;;17.45;60.89
35419;BME280;21525;41.240;16.500;2023-04-10T05:21:39;101522.81;;;17.33;60.82
35419;BME280;21525;41.240;16.500;2023-04-10T05:24:21;101547.16;;;17.09;61.73
35419;BME280;21525;41.240;16.500;2023-04-10T05:27:11;101553.91;;;16.87;63.36
35419;BME280;21525;41.240;16.500;2023-04-10T05:29:51;101549.47;;;16.89;62.17
35419;BME280;21525;41.240;16.500;2023-04-10T05:32:35;101557.78;;;16.33;63.55
35419;BME280;21525;41.240;16.500;2023-04-10T05:35:17;101549.94;;;17.03;61.49
35419;BME280;21525;41.240;16.500;2023-04-10T05:37:52;101555.31;;;16.63;63.03
35419;BME280;21525;41.240;16.500;2023-04-10T05:40:36;101545.06;;;16.89;63.13
35419;BME280;21525;41.240;16.500;2023-04-10T05:43:21;101544.59;;;16.73;63.14
35419;BME280;21525;41.240;16.500;2023-04-10T05:46:06;101550.81;;;16.69;62.08
35419;BME280;21525;41.240;16.500;2023-04-10T05:48:58;101553.81;;;16.54;62.85
35419;BME280;21525;41.240;16.500;2023-04-10T05:51:59;101550.84;;;16.68;62.68
35419;BME280;21525;41.240;16.500;2023-04-10T05:54:44;101555.78;;;17.14;60.19
35419;BME280;21525;41.240;16.500;2023-04-10T05:57:24;101559.22;;;16.84;61.63
35419;BME280;21525;41.240;16.500;2023-04-10T06:00:21;101544.88;;;17.28;60.56
35419;BME280;21525;41.240;16.500;2023-04-10T06:03:05;101559.56;;;17.04;60.77
35419;BME280;21525;41.240;16.500;2023-04-10T06:05:34;101559.25;;;17.47;59.49
35419;BME280;21525;41.240;16.500;2023-04-10T06:08:03;101559.28;;;17.15;60.56
35419;BME280;21525;41.240;16.500;2023-04-10T06:10:29;101564.28;;;16.56;63.16
35419;BME280;21525;41.240;16.500;2023-04-10T06:12:56;101560.72;;;16.92;61.37
35419;BME280;21525;41.240;16.500;2023-04-10T06:15:24;101559.13;;;17.21;60.46
35419;BME280;21525;41.240;16.500;2023-04-10T06:17:50;101567.94;;;17.18;60.20
35419;BME280;21525;41.240;16.500;2023-04-10T06:20:18;101569.16;;;17.37;59.85
35419;BME280;21525;41.240;16.500;2023-04-10T06:22:44;101590.59;;;17.22;61.23
35419;BME280;21525;41.240;16.500;2023-04-10T06:25:10;101608.97;;;17.24;61.05
35419;BME280;21525;41.240;16.500;2023-04-10T06:27:36;101614.19;;;17.25;61.22
35419;BME280;21525;41.240;16.500;2023-04-10T06:30:07;101613.22;;;16.95;60.71
35419;BME280;21525;41.240;16.500;2023-04-10T06:32:33;101621.13;;;17.28;60.86
35419;BME280;21525;41.240;16.500;2023-04-10T06:34:59;101623.28;;;17.46;59.93
35419;BME280;21525;41.240;16.500;2023-04-10T06:37:29;101612.19;;;17.35;60.76
35419;BME280;21525;41.240;16.500;2023-04-10T06:40:05;101616.09;;;17.20;61.22
35419;BME280;21525;41.240;16.500;2023-04-10T06:42:32;101614.63;;;17.08;61.26
35419;BME280;21525;41.240;16.500;2023-04-10T06:45:07;101606.72;;;17.75;59.65
35419;BME280;21525;41.240;16.500;2023-04-10T06:47:34;101611.50;;;17.27;60.03
35419;BME280;21525;41.240;16.500;2023-04-10T06:49:59;101610.56;;;17.62;61.08
35419;BME280;21525;41.240;16.500;2023-04-10T06:52:25;101613.31;;;17.57;61.84
35419;BME280;21525;41.240;16.500;2023-04-10T06:54:51;101623.69;;;16.97;65.78
35419;BME280;21525;41.240;16.500;2023-04-10T06:57:17;101618.31;;;17.35;66.66
35419;BME280;21525;41.240;16.500;2023-04-10T06:59:43;101622.25;;;17.19;68.49
35419;BME280;21525;41.240;16.500;2023-04-10T07:02:09;101613.78;;;17.08;69.95
35419;BME280;21525;41.240;16.500;2023-04-10T07:04:35;101608.59;;;17.05;69.77
35419;BME280;21525;41.240;16.500;2023-04-10T07:07:01;101601.09;;;16.90;70.07
35419;BME280;21525;41.240;16.500;2023-04-10T07:09:28;101596.59;;;16.21;74.91
35419;BME280;21525;41.240;16.500;2023-04-10T07:11:54;101593.34;;;16.09;78.24
35419;BME280;21525;41.240;16.500;2023-04-10T07:14:20;101588.25;;;16.40;78.14
35419;BME280;21525;41.240;16.500;2023-04-10T07:16:46;101569.16;;;16.34;76.47
35419;BME280;21525;41.240;16.500;2023-04-10T07:19:11;101570.50;;;16.15;80.86
35419;BME280;21525;41.240;16.500;2023-04-10T07:21:38;101556.66;;;16.45;79.47
35419;BME280;21525;41.240;16.500;2023-04-10T07:24:05;101555.03;;;16.39;79.36
35419;BME280;21525;41.240;16.500;2023-04-10T07:26:32;101543.22;;;16.22;80.75
35419;BME280;21525;41.240;16.500;2023-04-10T07:28:58;101543.22;;;15.83;85.16
35419;BME280;21525;41.240;16.500;2023-04-10T07:31:23;101545.09;;;16.15;82.44
35419;BME280;21525;41.240;16.500;2023-04-10T07:33:49;101533.31;;;15.94;85.18
35419;BME280;21525;41.240;16.500;2023-04-10T07:36:15;101545.25;;;15.69;86.72
35419;BME280;21525;41.240;16.500;2023-04-10T07:38:41;101544.16;;;16.19;84.70
35419;BME280;21525;41.240;16.500;2023-04-10T07:41:07;101535.97;;;15.51;86.65
35419;BME280;21525;41.240;16.500;2023-04-10T07:43:34;101548.25;;;16.29;84.38
35419;BME280;21525;41.240;16.500;2023-04-10T07:45:59;101540.91;;;16.81;79.65
35419;BME280;21525;41.240;16.500;2023-04-10T07:48:25;101551.56;;;16.74;81.23
35419;BME280;21525;41.240;16.500;2023-04-10T07:50:51;101570.75;;;17.12;79.18
35419;BME280;21525;41.240;16.500;2023-04-10T07:53:17;101564.66;;;16.76;79.76
35419;BME280;21525;41.240;16.500;2023-04-10T07:55:44;101571.06;;;17.32;78.28
35419;BME280;21525;41.240;16.500;2023-04-10T07:58:13;101583.28;;;17.33;78.26
35419;BME280;21525;41.240;16.500;2023-04-10T08:00:39;101587.94;;;17.55;76.64
35419;BME280;21525;41.240;16.500;2023-04-10T08:03:05;101606.69;;;17.11;78.92
35419;BME280;21525;41.240;16.500;2023-04-10T08:05:31;101614.97;;;16.95;81.66
35419;BME280;21525;41.240;16.500;2023-04-10T08:07:58;101607.38;;;17.51;77.87
35419;BME280;21525;41.240;16.500;2023-04-10T08:10:24;101605.28;;;17.31;80.12
35419;BME280;21525;41.240;16.500;2023-04-10T08:12:50;101606.00;;;17.03;81.57
35419;BME280;21525;41.240;16.500;2023-04-10T08:15:16;101600.47;;;17.46;79.88
35419;BME280;21525;41.240;16.500;2023-04-10T08:17:43;101578.59;;;17.77;77.06
35419;BME280;21525;41.240;16.500;2023-04-10T08:20:10;101577.22;;;17.62;77.86
35419;BME280;21525;41.240;16.500;2023-04-10T08:22:36;101578.63;;;17.44;80.95
35419;BME280;21525;41.240;16.500;2023-04-10T08:25:03;101570.63;;;17.17;80.97
35419;BME280;21525;41.240;16.500;2023-04-10T08:27:29;101562.59;;;17.54;81.30
35419;BME280;21525;41.240;16.500;2023-04-10T08:29:55;101566.59;;;17.67;80.18
35419;BME280;21525;41.240;16.500;2023-04-10T08:32:21;101573.59;;;17.68;79.64
35419;BME280;21525;41.240;16.500;2023-04-10T08:34:48;101588.66;;;17.92;78.06
35419;BME280;21525;41.240;16.500;2023-04-10T08:37:14;101583.16;;;17.70;78.91
35419;BME280;21525;41.240;16.500;2023-04-10T08:39:40;101585.78;;;18.00;78.28
35419;BME280;21525;41.240;16.500;2023-04-10T08:42:06;101593.56;;;18.04;77.38
35419;BME280;21525;41.240;16.500;2023-04-10T08:44:32;101589.50;;;17.93;76.67
35419;BME280;21525;41.240;16.500;2023-04-10T08:47:01;101582.75;;;18.13;74.75
35419;BME280;21525;41.240;16.500;2023-04-10T08:51:57;101592.66;;;17.76;76.61
35419;BME280;21525;41.240;16.500;2023-04-10T08:54:32;101603.19;;;17.76;77.37
35419;BME280;21525;41.240;16.500;2023-04-10T08:56:59;101595.72;;;17.59;78.44
35419;BME280;21525;41.240;16.500;2023-04-10T08:59:29;101590.94;;;17.42;77.22
35419;BME280;21525;41.240;16.500;2023-04-10T09:01:56;101596.59;;;17.27;80.44
35419;BME280;21525;41.240;16.500;2023-04-10T09:04:25;101593.56;;;17.42;79.83
35419;BME280;21525;41.240;16.500;2023-04-10T09:06:52;101592.41;;;17.85;75.60
35419;BME280;21525;41.240;16.500;2023-04-10T09:09:18;101590.03;;;17.76;78.48
35419;BME280;21525;41.240;16.500;2023-04-10T09:14:22;101596.00;;;18.10;73.89
35419;BME280;21525;41.240;16.500;2023-04-10T09:16:50;101586.75;;;17.68;76.12
35419;BME280;21525;41.240;16.500;2023-04-10T09:19:32;101589.59;;;17.59;77.07
35419;BME280;21525;41.240;16.500;2023-04-10T09:21:58;101585.69;;;18.03;75.92
35419;BME280;21525;41.240;16.500;2023-04-10T09:24:25;101585.38;;;18.41;74.06
35419;BME280;21525;41.240;16.500;2023-04-10T09:26:53;101583.31;;;18.23;75.58
35419;BME280;21525;41.240;16.500;2023-04-10T09:29:19;101586.13;;;18.19;73.55
35419;BME280;21525;41.240;16.500;2023-04-10T09:31:45;101588.69;;;18.76;71.71
35419;BME280;21525;41.240;16.500;2023-04-10T09:34:17;101572.81;;;18.77;72.15
35419;BME280;21525;41.240;16.500;2023-04-10T09:36:52;101579.56;;;18.58;71.64
35419;BME280;21525;41.240;16.500;2023-04-10T09:39:19;101570.03;;;18.54;72.04
35419;BME280;21525;41.240;16.500;2023-04-10T09:41:53;101562.19;;;18.25;72.46
35419;BME280;21525;41.240;16.500;2023-04-10T09:44:33;101566.38;;;18.60;72.31
35419;BME280;21525;41.240;16.500;2023-04-10T09:47:15;101555.09;;;20.02;67.65
35419;BME280;21525;41.240;16.500;2023-04-10T09:49:57;101553.84;;;19.89;66.15
35419;BME280;21525;41.240;16.500;2023-04-10T09:52:26;101557.00;;;19.99;65.57
35419;BME280;21525;41.240;16.500;2023-04-10T09:54:54;101555.66;;;19.87;64.07
35419;BME280;21525;41.240;16.500;2023-04-10T09:57:21;101554.44;;;19.74;64.62
35419;BME280;21525;41.240;16.500;2023-04-10T09:59:55;101548.06;;;19.79;63.14
35419;BME280;21525;41.240;16.500;2023-04-10T10:02:22;101546.34;;;19.55;63.70
35419;BME280;21525;41.240;16.500;2023-04-10T10:04:49;101545.63;;;19.97;61.74
35419;BME280;21525;41.240;16.500;2023-04-10T10:07:17;101548.56;;;19.18;62.54
35419;BME280;21525;41.240;16.500;2023-04-10T10:09:45;101538.53;;;19.27;61.36
35419;BME280;21525;41.240;16.500;2023-04-10T10:12:12;101537.66;;;19.52;61.66
35419;BME280;21525;41.240;16.500;2023-04-10T10:14:56;101533.50;;;20.78;57.75
35419;BME280;21525;41.240;16.500;2023-04-10T10:17:30;101530.22;;;21.12;57.11
35419;BME280;21525;41.240;16.500;2023-04-10T10:20:01;101529.56;;;21.67;55.11
35419;BME280;21525;41.240;16.500;2023-04-10T10:22:29;101533.81;;;21.71;54.23
35419;BME280;21525;41.240;16.500;2023-04-10T10:24:56;101533.88;;;21.69;53.67
35419;BME280;21525;41.240;16.500;2023-04-10T10:27:25;101525.19;;;21.85;52.15
35419;BME280;21525;41.240;16.500;2023-04-10T10:29:52;101538.28;;;20.49;53.26
35419;BME280;21525;41.240;16.500;2023-04-10T10:32:20;101523.25;;;21.32;52.97
35419;BME280;21525;41.240;16.500;2023-04-10T10:34:46;101527.84;;;20.45;53.30
35419;BME280;21525;41.240;16.500;2023-04-10T10:37:12;101515.50;;;20.66;52.52
35419;BME280;21525;41.240;16.500;2023-04-10T10:47:44;101516.44;;;20.86;52.04
35419;BME280;21525;41.240;16.500;2023-04-10T10:50:11;101525.41;;;20.61;52.15
35419;BME280;21525;41.240;16.500;2023-04-10T10:52:51;101517.75;;;20.11;51.18
35419;BME280;21525;41.240;16.500;2023-04-10T11:00:14;101513.91;;;20.83;50.19
35419;BME280;21525;41.240;16.500;2023-04-10T11:02:41;101514.19;;;20.97;51.10
35419;BME280;21525;41.240;16.500;2023-04-10T11:05:07;101506.84;;;21.03;50.29
35419;BME280;21525;41.240;16.500;2023-04-10T11:13:31;101509.25;;;22.41;47.88
35419;BME280;21525;41.240;16.500;2023-04-10T11:15:58;101510.88;;;21.51;49.49
35419;BME280;21525;41.240;16.500;2023-04-10T11:21:15;101506.69;;;22.39;47.68
35419;BME280;21525;41.240;16.500;2023-04-10T11:29:03;101506.00;;;21.98;48.55
35419;BME280;21525;41.240;16.500;2023-04-10T11:31:31;101496.81;;;21.69;49.03
35419;BME280;21525;41.240;16.500;2023-04-10T11:34:01;101502.41;;;22.18;49.39
35419;BME280;21525;41.240;16.500;2023-04-10T11:36:27;101496.25;;;22.18;48.12
35419;BME280;21525;41.240;16.500;2023-04-10T11:38:54;101506.44;;;21.89;49.63
35419;BME280;21525;41.240;16.500;2023-04-10T11:41:24;101510.47;;;22.51;49.29
35419;BME280;21525;41.240;16.500;2023-04-10T11:43:52;101509.09;;;22.61;50.94
35419;BME280;21525;41.240;16.500;2023-04-10T11:46:17;101497.56;;;22.62;48.96
35419;BME280;21525;41.240;16.500;2023-04-10T11:48:44;101506.25;;;22.47;47.37
35419;BME280;21525;41.240;16.500;2023-04-10T11:51:12;101504.22;;;23.21;49.72
35419;BME280;21525;41.240;16.500;2023-04-10T11:53:39;101509.00;;;22.45;47.46
35419;BME280;21525;41.240;16.500;2023-04-10T11:56:13;101506.72;;;23.24;46.24
35419;BME280;21525;41.240;16.500;2023-04-10T11:58:39;101502.81;;;23.14;47.99
35419;BME280;21525;41.240;16.500;2023-04-10T12:01:04;101510.31;;;23.23;46.65
35419;BME280;21525;41.240;16.500;2023-04-10T12:03:37;101498.50;;;22.96;46.68
35419;BME280;21525;41.240;16.500;2023-04-10T12:06:09;101511.25;;;22.36;47.36
35419;BME280;21525;41.240;16.500;2023-04-10T12:08:41;101509.25;;;22.41;47.53
35419;BME280;21525;41.240;16.500;2023-04-10T12:11:08;101516.13;;;22.62;47.21
35419;BME280;21525;41.240;16.500;2023-04-10T12:13:34;101521.19;;;22.13;47.53
35419;BME280;21525;41.240;16.500;2023-04-10T12:16:03;101514.28;;;21.73;48.17
35419;BME280;21525;41.240;16.500;2023-04-10T12:18:29;101523.53;;;22.20;47.70
35419;BME280;21525;41.240;16.500;2023-04-10T12:20:56;101517.41;;;21.82;48.78
35419;BME280;21525;41.240;16.500;2023-04-10T12:23:25;101521.13;;;21.59;49.60
35419;BME280;21525;41.240;16.500;2023-04-10T12:25:52;101511.59;;;22.11;48.37
35419;BME280;21525;41.240;16.500;2023-04-10T12:28:21;101514.34;;;21.72;48.84
35419;BME280;21525;41.240;16.500;2023-04-10T12:30:48;101510.09;;;21.10;49.70
35419;BME280;21525;41.240;16.500;2023-04-10T12:33:20;101502.84;;;21.13;49.37
35419;BME280;21525;41.240;16.500;2023-04-10T12:35:46;101514.72;;;21.25;49.37
35419;BME280;21525;41.240;16.500;2023-04-10T12:38:12;101517.50;;;20.82;50.24
35419;BME280;21525;41.240;16.500;2023-04-10T12:40:56;101505.88;;;21.83;48.41
35419;BME280;21525;41.240;16.500;2023-04-10T12:43:36;101507.38;;;21.51;48.95
35419;BME280;21525;41.240;16.500;2023-04-10T12:46:03;101509.03;;;20.94;49.77
35419;BME280;21525;41.240;16.500;2023-04-10T12:48:30;101505.38;;;21.56;49.27
35419;BME280;21525;41.240;16.500;2023-04-10T12:50:55;101487.00;;;21.53;49.74
35419;BME280;21525;41.240;16.500;2023-04-10T12:53:22;101498.31;;;21.37;49.93
35419;BME280;21525;41.240;16.500;2023-04-10T12:56:17;101497.38;;;21.38;49.84
35419;BME280;21525;41.240;16.500;2023-04-10T12:58:44;101502.28;;;21.84;49.43
35419;BME280;21525;41.240;16.500;2023-04-10T13:01:10;101492.50;;;20.89;51.05
35419;BME280;21525;41.240;16.500;2023-04-10T13:03:37;101498.97;;;20.82;52.18
35419;BME280;21525;41.240;16.500;2023-04-10T13:06:06;101486.69;;;21.21;52.29
35419;BME280;21525;41.240;16.500;2023-04-10T13:08:35;101480.28;;;20.86;52.57
35419;BME280;21525;41.240;16.500;2023-04-10T13:11:01;101485.06;;;21.37;51.74
35419;BME280;21525;41.240;16.500;2023-04-10T13:13:31;101486.28;;;21.30;51.54
35419;BME280;21525;41.240;16.500;2023-04-10T13:15:58;101489.63;;;21.53;51.03
35419;BME280;21525;41.240;16.500;2023-04-10T13:18:24;101483.28;;;21.57;51.42
35419;BME280;21525;41.240;16.500;2023-04-10T13:20:51;101477.78;;;21.42;52.02
35419;BME280;21525;41.240;16.500;2023-04-10T13:23:16;101480.75;;;20.96;53.08
35419;BME280;21525;41.240;16.500;2023-04-10T13:25:42;101481.47;;;21.57;51.68
35419;BME280;21525;41.240;16.500;2023-04-10T13:28:08;101477.75;;;21.80;51.17
35419;BME280;21525;41.240;16.500;2023-04-10T13:30:38;101469.69;;;22.19;49.97
35419;BME280;21525;41.240;16.500;2023-04-10T13:33:04;101477.78;;;21.42;51.37
35419;BME280;21525;41.240;16.500;2023-04-10T13:35:30;101474.81;;;21.30;51.87
35419;BME280;21525;41.240;16.500;2023-04-10T13:37:56;101479.69;;;21.58;51.80
35419;BME280;21525;41.240;16.500;2023-04-10T13:40:21;101465.06;;;21.87;51.35
35419;BME280;21525;41.240;16.500;2023-04-10T13:42:47;101463.63;;;21.43;51.57